createdAt,value
2023-05-12T00:01:33.362Z,13.58
2023-05-12T00:04:37.139Z,13.60
2023-05-12T00:07:41.240Z,13.56
2023-05-12T00:10:43.984Z,13.52
2023-05-12T00:13:46.702Z,13.54
2023-05-12T00:16:51.953Z,13.51
2023-05-12T00:19:54.723Z,13.50
2023-05-12T00:22:58.750Z,13.53
2023-05-12T00:26:01.383Z,13.55
2023-05-12T00:29:04.242Z,13.60
2023-05-12T00:32:08.336Z,13.56
2023-05-12T00:35:11.239Z,13.58
2023-05-12T00:38:15.280Z,13.52
2023-05-12T00:41:17.926Z,13.52
2023-05-12T00:44:22.977Z,13.55
2023-05-12T00:47:25.688Z,13.58
2023-05-12T00:50:28.621Z,13.58
2023-05-12T00:53:47.821Z,13.58
2023-05-12T00:56:52.205Z,13.57
2023-05-12T00:59:55.274Z,13.56
2023-05-12T01:02:58.664Z,13.55
2023-05-12T01:06:07.508Z,13.54
2023-05-12T01:09:11.610Z,13.54
2023-05-12T01:12:14.274Z,13.58
2023-05-12T01:15:18.150Z,13.56
2023-05-12T01:18:22.846Z,13.57
2023-05-12T01:21:25.869Z,13.58
2023-05-12T01:24:33.399Z,13.57
2023-05-12T01:27:39.700Z,13.47
2023-05-12T01:30:44.615Z,13.45
2023-05-12T01:33:47.365Z,13.68
2023-05-12T01:36:49.992Z,13.49
2023-05-12T01:39:52.665Z,13.55
2023-05-12T01:42:56.696Z,13.55
2023-05-12T01:45:59.512Z,13.49
2023-05-12T01:49:02.821Z,13.48
2023-05-12T01:52:06.442Z,13.50
2023-05-12T01:55:09.372Z,13.46
2023-05-12T01:58:13.368Z,13.42
2023-05-12T02:01:16.096Z,13.51
2023-05-12T02:04:19.188Z,13.50
2023-05-12T02:07:21.858Z,13.57
2023-05-12T02:10:24.498Z,13.47
2023-05-12T02:13:29.315Z,13.42
2023-05-12T02:16:32.051Z,13.44
2023-05-12T02:19:35.177Z,13.41
2023-05-12T02:22:37.802Z,13.43
2023-05-12T02:25:40.710Z,13.49
2023-05-12T02:28:44.735Z,13.43
2023-05-12T02:31:47.498Z,13.43
2023-05-12T02:34:53.283Z,13.45
2023-05-12T02:37:56.245Z,13.50
2023-05-12T02:40:59.181Z,13.55
2023-05-12T02:44:03.232Z,13.53
2023-05-12T02:47:08.994Z,13.47
2023-05-12T02:50:11.904Z,13.58
2023-05-12T02:53:17.378Z,13.63
2023-05-12T02:56:20.279Z,13.61
2023-05-12T02:59:24.449Z,13.57
2023-05-12T03:02:27.557Z,13.43
2023-05-12T03:05:30.736Z,13.40
2023-05-12T03:08:33.493Z,13.43
2023-05-12T03:11:36.161Z,13.48
2023-05-12T03:14:40.202Z,13.48
2023-05-12T03:17:43.180Z,13.53
2023-05-12T03:20:46.036Z,13.56
2023-05-12T03:23:48.766Z,13.61
2023-05-12T03:26:51.447Z,13.59
2023-05-12T03:29:55.429Z,13.63
2023-05-12T03:32:58.188Z,13.68
2023-05-12T03:36:00.862Z,13.68
2023-05-12T03:39:04.463Z,13.66
2023-05-12T03:42:07.609Z,13.57
2023-05-12T03:45:12.560Z,13.62
2023-05-12T03:48:15.358Z,13.61
2023-05-12T03:51:18.132Z,13.63
2023-05-12T03:54:20.866Z,13.44
2023-05-12T03:57:23.529Z,13.44
2023-05-12T04:00:27.756Z,13.40
2023-05-12T04:03:31.139Z,13.43
2023-05-12T04:06:33.878Z,13.49
2023-05-12T04:09:36.552Z,13.55
2023-05-12T04:12:39.646Z,13.52
2023-05-12T04:15:44.135Z,13.50
2023-05-12T04:18:46.822Z,13.49
2023-05-12T04:21:49.529Z,13.64
2023-05-12T04:24:52.258Z,13.70
2023-05-12T04:27:54.937Z,13.70
2023-05-12T04:31:04.349Z,13.63
2023-05-12T04:34:06.993Z,13.53
2023-05-12T04:37:09.695Z,13.47
2023-05-12T04:40:12.704Z,13.42
2023-05-12T04:46:26.991Z,13.52
2023-05-12T04:49:29.716Z,13.47
2023-05-12T04:52:32.387Z,13.61
2023-05-12T04:55:35.164Z,13.52
2023-05-12T04:58:38.402Z,13.38
2023-05-12T05:01:42.625Z,13.40
2023-05-12T05:04:45.529Z,13.46
2023-05-12T05:07:48.780Z,13.62
2023-05-12T05:10:51.441Z,13.54
2023-05-12T05:13:54.130Z,13.70
2023-05-12T05:16:58.214Z,13.64
2023-05-12T05:20:01.013Z,13.60
2023-05-12T05:23:04.101Z,13.76
2023-05-12T05:26:06.785Z,13.66
2023-05-12T05:29:09.429Z,13.69
2023-05-12T05:32:13.527Z,13.89
2023-05-12T05:35:16.665Z,13.70
2023-05-12T05:38:19.355Z,13.75
2023-05-12T05:41:22.368Z,13.75
2023-05-12T05:44:25.144Z,13.97
2023-05-12T05:47:29.311Z,13.91
2023-05-12T05:50:31.964Z,14.05
2023-05-12T05:53:35.011Z,14.14
2023-05-12T05:56:39.980Z,14.29
2023-05-12T05:59:42.946Z,14.39
2023-05-12T06:02:49.769Z,14.51
2023-05-12T06:05:52.558Z,14.60
2023-05-12T06:08:56.095Z,14.70
2023-05-12T06:12:08.398Z,14.80
2023-05-12T06:15:11.729Z,14.88
2023-05-12T06:18:16.230Z,14.95
2023-05-12T06:21:18.980Z,15.04
2023-05-12T06:24:21.678Z,15.04
2023-05-12T06:27:24.438Z,15.04
2023-05-12T06:30:27.686Z,15.01
2023-05-12T06:33:31.732Z,15.00
2023-05-12T06:36:34.603Z,15.01
2023-05-12T06:39:37.295Z,14.97
2023-05-12T06:42:40.190Z,14.95
2023-05-12T06:45:43.074Z,14.90
2023-05-12T06:48:49.860Z,14.75
2023-05-12T06:51:52.537Z,14.81
2023-05-12T06:54:55.168Z,14.83
2023-05-12T06:57:57.845Z,14.85
2023-05-12T07:01:00.640Z,14.97
2023-05-12T07:04:05.941Z,14.98
2023-05-12T07:07:08.775Z,15.12
2023-05-12T07:10:11.793Z,15.18
2023-05-12T07:13:15.349Z,15.18
2023-05-12T07:16:19.174Z,15.34
2023-05-12T07:19:26.738Z,15.34
2023-05-12T07:22:29.966Z,15.36
2023-05-12T07:25:32.645Z,15.41
2023-05-12T07:28:36.643Z,15.27
2023-05-12T07:31:39.538Z,15.18
2023-05-12T07:34:43.677Z,15.20
2023-05-12T07:37:46.543Z,15.30
2023-05-12T07:40:49.171Z,15.19
2023-05-12T07:43:52.541Z,15.24
2023-05-12T07:46:58.227Z,15.24
2023-05-12T07:50:02.355Z,15.45
2023-05-12T07:53:05.765Z,15.58
2023-05-12T07:56:08.611Z,15.56
2023-05-12T07:59:11.806Z,15.59
2023-05-12T08:02:15.004Z,15.63
2023-05-12T08:05:22.387Z,15.70
2023-05-12T08:08:25.233Z,15.88
2023-05-12T08:11:28.155Z,15.83
2023-05-12T08:14:30.829Z,15.95
2023-05-12T08:17:34.914Z,15.88
2023-05-12T08:20:39.788Z,15.88
2023-05-12T08:23:44.773Z,15.84
2023-05-12T08:26:47.509Z,15.93
2023-05-12T08:29:52.316Z,15.92
2023-05-12T08:32:55.239Z,16.00
2023-05-12T08:35:59.348Z,16.07
2023-05-12T08:39:03.426Z,16.06
2023-05-12T08:42:17.448Z,15.97
2023-05-12T08:45:20.450Z,16.16
2023-05-12T08:48:24.529Z,16.27
2023-05-12T08:51:30.148Z,16.65
2023-05-12T08:54:36.023Z,17.09
2023-05-12T08:57:45.736Z,17.26
2023-05-12T09:00:52.563Z,17.72
2023-05-12T09:03:55.357Z,17.60
2023-05-12T09:06:59.848Z,17.64
2023-05-12T09:10:06.711Z,17.99
2023-05-12T09:13:21.220Z,18.09
2023-05-12T09:16:26.559Z,17.99
2023-05-12T09:19:31.703Z,18.30
2023-05-12T09:22:35.950Z,18.64
2023-05-12T09:25:38.681Z,18.88
2023-05-12T09:28:41.481Z,19.15
2023-05-12T09:31:50.974Z,19.39
2023-05-12T09:34:56.067Z,19.66
2023-05-12T09:38:06.886Z,19.96
2023-05-12T09:41:09.508Z,19.94
2023-05-12T09:44:17.443Z,20.05
2023-05-12T09:47:20.121Z,20.16
2023-05-12T09:50:23.643Z,19.89
2023-05-12T09:53:28.094Z,19.51
2023-05-12T09:56:32.360Z,19.48
2023-05-12T09:59:36.517Z,18.74
2023-05-12T10:02:42.688Z,18.13
2023-05-12T10:05:50.526Z,17.99
2023-05-12T10:09:00.475Z,17.77
2023-05-12T10:12:06.456Z,17.82
2023-05-12T10:15:11.640Z,18.36
2023-05-12T10:18:15.969Z,18.40
2023-05-12T10:21:19.529Z,18.88
2023-05-12T10:24:27.804Z,19.30
2023-05-12T10:27:32.198Z,19.20
2023-05-12T10:30:36.039Z,19.32
2023-05-12T10:33:38.919Z,19.60
2023-05-12T10:36:47.707Z,20.08
2023-05-12T10:39:53.261Z,20.39
2023-05-12T10:42:59.632Z,20.57
2023-05-12T10:46:17.892Z,20.71
2023-05-12T10:49:20.610Z,20.91
2023-05-12T10:52:23.336Z,21.11
2023-05-12T10:55:43.288Z,21.31
2023-05-12T10:59:08.581Z,21.48
2023-05-12T11:02:17.103Z,21.21
2023-05-12T11:05:20.318Z,20.35
2023-05-12T11:08:24.822Z,19.81
2023-05-12T11:11:29.911Z,19.25
2023-05-12T11:14:33.354Z,19.62
2023-05-12T11:17:40.142Z,20.03
2023-05-12T11:20:43.600Z,20.45
2023-05-12T11:23:52.022Z,20.95
2023-05-12T11:26:56.428Z,21.16
2023-05-12T11:30:04.416Z,21.01
2023-05-12T11:33:07.138Z,20.90
2023-05-12T11:36:11.230Z,20.89
2023-05-12T11:39:18.160Z,20.74
2023-05-12T11:42:24.415Z,20.95
2023-05-12T11:45:30.484Z,20.68
2023-05-12T11:48:34.633Z,20.33
2023-05-12T11:51:37.445Z,19.56
2023-05-12T11:54:40.361Z,18.80
2023-05-12T11:57:44.387Z,18.01
2023-05-12T12:00:47.181Z,17.44
2023-05-12T12:03:51.547Z,17.03
2023-05-12T12:06:54.289Z,17.03
2023-05-12T12:09:57.060Z,16.88
2023-05-12T12:13:02.509Z,16.84
2023-05-12T12:16:05.928Z,16.98
2023-05-12T12:19:09.047Z,17.32
2023-05-12T12:22:14.837Z,17.62
2023-05-12T12:25:17.631Z,18.22
2023-05-12T12:28:22.135Z,18.72
2023-05-12T12:31:24.898Z,19.19
2023-05-12T12:34:27.823Z,19.50
2023-05-12T12:37:30.491Z,19.59
2023-05-12T12:40:33.254Z,19.50
2023-05-12T12:43:37.472Z,19.08
2023-05-12T12:46:40.412Z,18.98
2023-05-12T12:49:43.216Z,19.02
2023-05-12T12:52:45.931Z,19.39
2023-05-12T12:55:48.640Z,19.72
2023-05-12T12:58:52.913Z,20.00
2023-05-12T13:01:55.738Z,20.31
2023-05-12T13:04:59.209Z,20.53
2023-05-12T13:08:01.928Z,20.66
2023-05-12T13:11:04.712Z,20.66
2023-05-12T13:14:08.782Z,20.42
2023-05-12T13:17:11.537Z,20.26
2023-05-12T13:20:14.999Z,20.03
2023-05-12T13:23:17.748Z,19.74
2023-05-12T13:26:21.045Z,19.40
2023-05-12T13:29:25.225Z,19.22
2023-05-12T13:32:28.395Z,19.11
2023-05-12T13:35:31.244Z,19.32
2023-05-12T13:38:34.606Z,19.38
2023-05-12T13:41:38.024Z,19.41
2023-05-12T13:44:42.494Z,19.69
2023-05-12T13:47:45.496Z,19.99
2023-05-12T13:50:48.827Z,19.81
2023-05-12T13:53:51.501Z,19.64
2023-05-12T13:56:54.763Z,19.53
2023-05-12T13:59:58.819Z,19.22
2023-05-12T14:03:01.706Z,19.12
2023-05-12T14:06:05.159Z,19.24
2023-05-12T14:09:07.904Z,19.44
2023-05-12T14:12:10.812Z,19.61
2023-05-12T14:15:28.955Z,19.96
2023-05-12T14:18:35.503Z,20.23
2023-05-12T14:21:40.968Z,20.42
2023-05-12T14:24:43.695Z,20.51
2023-05-12T14:27:46.815Z,20.56
2023-05-12T14:30:50.871Z,20.64
2023-05-12T14:33:54.142Z,20.66
2023-05-12T14:36:57.286Z,20.60
2023-05-12T14:40:00.165Z,20.29
2023-05-12T14:43:03.378Z,19.73
2023-05-12T14:46:12.429Z,19.68
2023-05-12T14:49:17.558Z,19.65
2023-05-12T14:52:20.187Z,19.82
2023-05-12T14:55:22.991Z,19.75
2023-05-12T14:58:25.998Z,19.65
2023-05-12T15:01:30.099Z,19.75
2023-05-12T15:04:32.847Z,19.78
2023-05-12T15:07:35.571Z,19.71
2023-05-12T15:10:39.337Z,19.61
2023-05-12T15:13:42.012Z,19.56
2023-05-12T15:16:46.224Z,19.61
2023-05-12T15:19:49.438Z,19.52
2023-05-12T15:22:54.265Z,19.41
2023-05-12T15:25:58.128Z,19.37
2023-05-12T15:29:02.924Z,19.41
2023-05-12T15:32:10.544Z,19.15
2023-05-12T15:35:14.069Z,19.12
2023-05-12T15:38:16.844Z,19.26
2023-05-12T15:41:19.633Z,19.27
2023-05-12T15:44:22.454Z,19.18
2023-05-12T15:47:27.426Z,19.07
2023-05-12T15:50:30.486Z,19.05
2023-05-12T15:53:33.217Z,18.79
2023-05-12T15:56:35.913Z,18.38
2023-05-12T15:59:38.661Z,18.32
2023-05-12T16:02:42.733Z,18.24
2023-05-12T16:05:45.553Z,18.28
2023-05-12T16:08:48.439Z,18.17
2023-05-12T16:11:52.027Z,18.30
2023-05-12T16:14:54.752Z,18.36
2023-05-12T16:17:58.838Z,18.25
2023-05-12T16:21:03.071Z,18.21
2023-05-12T16:24:08.838Z,18.46
2023-05-12T16:27:11.692Z,18.24
2023-05-12T16:30:16.222Z,18.07
2023-05-12T16:33:21.885Z,18.04
2023-05-12T16:36:25.128Z,17.97
2023-05-12T16:39:28.003Z,17.71
2023-05-12T16:42:31.106Z,17.86
2023-05-12T16:45:33.937Z,17.98
2023-05-12T16:48:38.404Z,17.89
2023-05-12T16:51:41.041Z,17.89
2023-05-12T16:54:44.238Z,17.90
2023-05-12T16:57:46.931Z,18.06
2023-05-12T17:00:49.697Z,17.95
2023-05-12T17:03:54.016Z,17.64
2023-05-12T17:06:57.971Z,17.76
2023-05-12T17:10:00.698Z,17.61
2023-05-12T17:13:05.395Z,17.49
2023-05-12T17:16:08.427Z,17.45
2023-05-12T17:19:14.086Z,17.46
2023-05-12T17:22:17.226Z,17.62
2023-05-12T17:25:20.366Z,17.57
2023-05-12T17:28:23.225Z,17.36
2023-05-12T17:31:26.007Z,17.31
2023-05-12T17:34:30.104Z,17.35
2023-05-12T17:37:33.616Z,17.24
2023-05-12T17:40:36.455Z,17.19
2023-05-12T17:43:39.161Z,17.22
2023-05-12T17:46:41.965Z,17.21
2023-05-12T17:49:46.208Z,17.00
2023-05-12T17:52:48.930Z,16.99
2023-05-12T17:55:51.663Z,16.84
2023-05-12T17:58:54.514Z,16.79
2023-05-12T18:01:57.246Z,16.73
2023-05-12T18:05:01.439Z,16.64
2023-05-12T18:08:04.264Z,16.76
2023-05-12T18:11:06.902Z,16.70
2023-05-12T18:14:09.522Z,16.57
2023-05-12T18:17:12.262Z,16.46
2023-05-12T18:20:16.687Z,16.47
2023-05-12T18:23:19.342Z,16.42
2023-05-12T18:26:22.079Z,16.44
2023-05-12T18:29:24.899Z,16.39
2023-05-12T18:32:27.593Z,16.38
2023-05-12T18:35:31.702Z,16.34
2023-05-12T18:38:34.808Z,16.31
2023-05-12T18:41:38.817Z,16.30
2023-05-12T18:44:42.258Z,16.27
2023-05-12T18:47:45.330Z,16.23
2023-05-12T18:50:49.424Z,16.20
2023-05-12T18:53:52.136Z,16.15
2023-05-12T18:56:54.815Z,16.07
2023-05-12T18:59:58.521Z,15.94
2023-05-12T19:03:02.908Z,15.99
2023-05-12T19:06:07.413Z,15.97
2023-05-12T19:09:10.102Z,15.91
2023-05-12T19:12:12.812Z,15.97
2023-05-12T19:15:16.289Z,15.87
2023-05-12T19:18:19.593Z,15.88
2023-05-12T19:21:23.706Z,15.67
2023-05-12T19:24:27.129Z,15.53
2023-05-12T19:27:30.091Z,15.50
2023-05-12T19:30:32.986Z,15.40
2023-05-12T19:33:35.979Z,15.22
2023-05-12T19:36:40.114Z,15.36
2023-05-12T19:39:42.737Z,15.15
2023-05-12T19:42:45.491Z,15.14
2023-05-12T19:45:48.281Z,15.08
2023-05-12T19:48:52.020Z,15.00
2023-05-12T19:51:56.073Z,14.92
2023-05-12T19:54:58.857Z,14.86
2023-05-12T19:58:01.958Z,14.81
2023-05-12T20:01:05.194Z,14.79
2023-05-12T20:04:08.557Z,14.71
2023-05-12T20:07:13.265Z,14.63
2023-05-12T20:10:16.180Z,14.52
2023-05-12T20:13:18.951Z,14.51
2023-05-12T20:16:21.765Z,14.57
2023-05-12T20:19:25.551Z,14.53
2023-05-12T20:22:29.591Z,14.47
2023-05-12T20:25:33.170Z,14.49
2023-05-12T20:28:35.927Z,14.47
2023-05-12T20:31:38.679Z,14.41
2023-05-12T20:34:41.428Z,14.37
2023-05-12T20:37:45.456Z,14.33
2023-05-12T20:40:48.145Z,14.27
2023-05-12T20:43:50.876Z,14.22
2023-05-12T20:46:53.928Z,14.10
2023-05-12T20:49:57.314Z,14.02
2023-05-12T20:53:01.283Z,13.95
2023-05-12T20:56:04.025Z,13.88
2023-05-12T20:59:06.810Z,13.82
2023-05-12T21:02:10.675Z,13.74
2023-05-12T21:05:13.568Z,13.69
2023-05-12T21:08:17.604Z,13.59
2023-05-12T21:11:21.023Z,13.60
2023-05-12T21:14:23.677Z,13.49
2023-05-12T21:17:26.460Z,13.40
2023-05-12T21:20:29.233Z,13.33
2023-05-12T21:23:33.610Z,13.27
2023-05-12T21:26:36.288Z,13.21
2023-05-12T21:29:39.149Z,13.18
2023-05-12T21:32:44.338Z,13.12
2023-05-12T21:35:47.141Z,13.09
2023-05-12T21:38:51.157Z,12.97
2023-05-12T21:41:53.794Z,12.95
2023-05-12T21:44:56.499Z,12.88
2023-05-12T21:47:59.258Z,12.82
2023-05-12T21:51:03.599Z,12.77
2023-05-12T21:54:08.790Z,12.73
2023-05-12T21:57:11.527Z,12.73
2023-05-12T22:00:15.090Z,12.66
2023-05-12T22:03:20.293Z,12.58
2023-05-12T22:06:23.052Z,12.53
2023-05-12T22:09:29.695Z,12.50
2023-05-12T22:12:33.897Z,12.46
2023-05-12T22:15:36.915Z,12.42
2023-05-12T22:18:43.404Z,12.39
2023-05-12T22:21:46.652Z,12.33
2023-05-12T22:24:52.663Z,12.26
2023-05-12T22:27:55.318Z,12.20
2023-05-12T22:30:57.998Z,12.16
2023-05-12T22:34:00.708Z,12.10
2023-05-12T22:37:04.031Z,12.08
2023-05-12T22:40:09.496Z,12.07
2023-05-12T22:43:15.284Z,12.09
2023-05-12T22:46:18.090Z,12.16
2023-05-12T22:49:20.903Z,12.26
2023-05-12T22:52:23.608Z,12.37
2023-05-12T22:55:30.732Z,12.54
2023-05-12T22:58:33.440Z,12.57
2023-05-12T23:01:36.657Z,12.57
2023-05-12T23:04:39.710Z,12.58
2023-05-12T23:07:42.343Z,12.56
2023-05-12T23:10:46.469Z,12.55
2023-05-12T23:13:49.160Z,12.55
2023-05-12T23:16:51.862Z,12.55
2023-05-12T23:19:54.529Z,12.52
2023-05-12T23:22:57.263Z,12.49
2023-05-12T23:26:01.258Z,12.43
2023-05-12T23:29:04.085Z,12.49
2023-05-12T23:32:07.348Z,12.54
2023-05-12T23:35:10.960Z,12.60
2023-05-12T23:38:13.634Z,12.68
2023-05-12T23:41:17.696Z,12.77
2023-05-12T23:44:20.565Z,12.84
2023-05-12T23:47:23.293Z,12.85
2023-05-12T23:50:26.037Z,12.97
2023-05-12T23:53:28.690Z,12.87
2023-05-12T23:56:32.734Z,12.91
2023-05-12T23:59:35.389Z,12.93
